Time;durP1;ratioP1;P1;durP2;ratioP2;P2;SDS_P1;SDS_P2;PMS_P1;PMS_P2;Temp;Humidity;BMP_temperature;BMP_pressure;BME280_temperature;BME280_humidity;BME280_pressure;Samples;Min_cycle;Max_cycle;Signal;HPM_P1;HPM_P2
2021/05/10 00:00:34;;;;;;;5.53;1.00;;;20.50;45.70;;;;;;4948950;29;20424;-68
2021/05/10 00:03:00;;;;;;;1.65;1.00;;;20.50;45.60;;;;;;4949069;29;20031;-68
2021/05/10 00:05:25;;;;;;;1.65;1.10;;;20.60;45.20;;;;;;4948057;28;20028;-68
2021/05/10 00:07:51;;;;;;;1.58;0.82;;;20.60;45.20;;;;;;4948820;28;20031;-68
2021/05/10 00:10:16;;;;;;;3.50;1.13;;;20.60;44.60;;;;;;4947254;28;20500;-68
2021/05/10 00:12:42;;;;;;;1.98;1.00;;;20.60;45.00;;;;;;4947409;28;20098;-68
2021/05/10 00:15:09;;;;;;;3.10;1.20;;;20.50;45.40;;;;;;4947168;28;20031;-68
2021/05/10 00:17:35;;;;;;;2.78;0.98;;;20.60;44.80;;;;;;4948524;29;20083;-68
2021/05/10 00:20:00;;;;;;;1.77;1.10;;;20.60;44.40;;;;;;4947971;29;20054;-68
2021/05/10 00:22:26;;;;;;;4.55;1.02;;;20.40;45.40;;;;;;4936624;29;20035;-68
2021/05/10 00:24:51;;;;;;;2.78;1.10;;;20.30;45.30;;;;;;4946715;28;20043;-67
2021/05/10 00:27:17;;;;;;;2.28;1.25;;;20.30;44.90;;;;;;4947709;29;20097;-67
2021/05/10 00:29:42;;;;;;;4.55;1.30;;;20.20;45.30;;;;;;4948880;29;20038;-68
2021/05/10 00:32:08;;;;;;;3.33;0.95;;;20.10;45.80;;;;;;4947808;28;20262;-68
2021/05/10 00:34:34;;;;;;;1.65;1.10;;;20.00;46.30;;;;;;4947736;28;20497;-67
2021/05/10 00:36:59;;;;;;;1.77;0.93;;;19.90;46.20;;;;;;4946207;28;20130;-68
2021/05/10 00:39:25;;;;;;;1.63;0.80;;;19.60;47.20;;;;;;4947604;28;20031;-69
2021/05/10 00:41:53;;;;;;;2.05;1.20;;;19.70;46.80;;;;;;4947035;29;20078;-68
2021/05/10 00:44:18;;;;;;;1.73;1.00;;;19.50;47.60;;;;;;4946279;28;20027;-68
2021/05/10 00:46:44;;;;;;;2.30;1.00;;;19.40;47.80;;;;;;4945251;29;20681;-68
2021/05/10 00:49:10;;;;;;;3.50;0.93;;;19.30;48.80;;;;;;4947235;29;20104;-67
2021/05/10 00:51:36;;;;;;;4.03;1.30;;;19.30;48.50;;;;;;4946235;29;20059;-67
2021/05/10 00:54:01;;;;;;;3.28;1.20;;;19.00;49.20;;;;;;4944013;29;20070;-67
2021/05/10 00:56:27;;;;;;;2.47;1.50;;;19.10;49.10;;;;;;4945320;29;20035;-68
2021/05/10 00:58:53;;;;;;;2.55;1.15;;;19.00;49.40;;;;;;4947912;29;20078;-68
2021/05/10 01:01:18;;;;;;;1.60;1.02;;;18.80;51.00;;;;;;4945882;29;20415;-67
2021/05/10 01:03:49;;;;;;;2.38;1.10;;;18.70;50.60;;;;;;4947281;29;20031;-68
2021/05/10 01:06:15;;;;;;;4.68;1.10;;;18.60;50.50;;;;;;4944189;28;20783;-67
2021/05/10 01:08:40;;;;;;;3.20;1.02;;;18.50;50.90;;;;;;4947835;29;20031;-68
2021/05/10 01:11:06;;;;;;;3.00;1.17;;;18.50;50.80;;;;;;4942919;29;20035;-67
2021/05/10 01:13:32;;;;;;;3.80;1.15;;;18.50;50.90;;;;;;4949400;29;20038;-67
2021/05/10 01:15:57;;;;;;;1.85;1.13;;;18.60;50.60;;;;;;4945573;28;20578;-68
2021/05/10 01:18:23;;;;;;;1.77;1.40;;;18.60;50.00;;;;;;4948502;29;20035;-68
2021/05/10 01:20:51;;;;;;;6.40;1.20;;;18.50;50.60;;;;;;4948896;29;20629;-67
2021/05/10 01:23:17;;;;;;;2.67;1.30;;;18.50;50.60;;;;;;4946983;29;20146;-68
2021/05/10 01:25:43;;;;;;;2.80;1.10;;;18.40;51.90;;;;;;4947268;28;20612;-68
2021/05/10 01:28:09;;;;;;;3.03;1.30;;;18.40;51.80;;;;;;4949638;28;20043;-67
2021/05/10 01:30:37;;;;;;;1.90;1.02;;;18.30;51.40;;;;;;4949475;29;20031;-68
2021/05/10 01:33:05;;;;;;;3.47;1.02;;;18.50;50.90;;;;;;4949037;29;20027;-68
2021/05/10 01:35:33;;;;;;;4.45;0.90;;;18.50;50.90;;;;;;4947062;28;20094;-68
2021/05/10 01:37:59;;;;;;;3.08;1.30;;;18.60;50.00;;;;;;4946540;28;20031;-68
2021/05/10 01:40:26;;;;;;;2.25;1.05;;;18.60;50.30;;;;;;4948476;28;20039;-68
2021/05/10 01:42:51;;;;;;;2.05;1.15;;;18.50;51.00;;;;;;4948975;28;20037;-67
2021/05/10 01:45:17;;;;;;;2.83;1.30;;;18.40;51.00;;;;;;4945995;28;21853;-67
2021/05/10 01:47:43;;;;;;;3.00;1.25;;;18.40;50.80;;;;;;4948866;29;20106;-68
2021/05/10 01:50:17;;;;;;;1.60;1.00;;;18.40;50.80;;;;;;4947892;29;20023;-67
2021/05/10 01:52:44;;;;;;;3.00;1.25;;;18.30;51.30;;;;;;4947757;29;20539;-68
2021/05/10 01:55:10;;;;;;;2.80;1.10;;;18.40;50.90;;;;;;4948390;29;20118;-67
2021/05/10 01:57:36;;;;;;;5.80;1.23;;;18.40;51.00;;;;;;4948736;29;20078;-68
2021/05/10 02:00:10;;;;;;;2.20;1.10;;;18.30;50.80;;;;;;4947480;29;20030;-67
2021/05/10 02:02:35;;;;;;;2.33;1.13;;;18.30;50.70;;;;;;4946297;29;20038;-67
2021/05/10 02:05:19;;;;;;;1.92;1.05;;;18.40;50.00;;;;;;4944157;28;20023;-68
2021/05/10 02:07:53;;;;;;;2.92;1.10;;;18.30;50.70;;;;;;4946234;28;20031;-67
2021/05/10 02:10:22;;;;;;;3.45;1.02;;;18.20;50.90;;;;;;4948854;29;20046;-67
2021/05/10 02:13:03;;;;;;;2.28;1.20;;;18.30;50.50;;;;;;4948975;29;20027;-68
2021/05/10 02:15:38;;;;;;;2.63;1.30;;;18.30;50.80;;;;;;4945124;28;20031;-67
2021/05/10 02:18:04;;;;;;;3.22;0.90;;;18.30;50.90;;;;;;4947570;29;20043;-68
2021/05/10 02:20:31;;;;;;;6.00;1.20;;;18.20;51.10;;;;;;4947393;29;20042;-67
2021/05/10 02:22:57;;;;;;;2.90;1.08;;;18.40;50.70;;;;;;4948405;29;20602;-68
2021/05/10 02:25:28;;;;;;;3.30;1.02;;;18.30;50.90;;;;;;4944955;28;20038;-67
2021/05/10 02:27:54;;;;;;;2.90;0.95;;;18.40;49.90;;;;;;4948141;28;20106;-68
2021/05/10 02:30:23;;;;;;;1.80;0.90;;;18.50;50.30;;;;;;4948247;29;20051;-68
2021/05/10 02:32:50;;;;;;;1.67;0.80;;;18.50;51.00;;;;;;4948363;29;20038;-67
2021/05/10 02:35:16;;;;;;;2.30;0.85;;;18.60;49.70;;;;;;4947256;28;20043;-68
2021/05/10 02:37:43;;;;;;;2.25;1.05;;;18.80;49.50;;;;;;4950586;28;20128;-68
2021/05/10 02:40:10;;;;;;;1.27;0.70;;;18.80;49.40;;;;;;4950112;28;20035;-68
2021/05/10 02:42:35;;;;;;;3.38;1.20;;;18.90;49.40;;;;;;4952535;29;20592;-67
2021/05/10 02:45:02;;;;;;;2.90;1.20;;;18.80;49.60;;;;;;4952190;29;20121;-68
2021/05/10 02:47:28;;;;;;;2.58;1.10;;;19.00;48.40;;;;;;4950932;29;20407;-68
2021/05/10 02:49:54;;;;;;;5.30;1.38;;;19.00;49.10;;;;;;4952553;29;20027;-68
2021/05/10 02:52:20;;;;;;;3.67;0.90;;;19.10;48.90;;;;;;4952646;28;20390;-68
2021/05/10 02:54:46;;;;;;;2.58;1.02;;;19.00;49.20;;;;;;4950496;28;20503;-68
2021/05/10 02:57:12;;;;;;;2.90;0.80;;;19.00;49.20;;;;;;4950370;29;20046;-67
2021/05/10 02:59:37;;;;;;;2.35;1.10;;;18.90;49.70;;;;;;4950969;29;20038;-68
2021/05/10 03:02:04;;;;;;;2.35;0.90;;;19.00;49.80;;;;;;4950856;29;20046;-68
2021/05/10 03:04:30;;;;;;;3.33;0.98;;;18.90;49.80;;;;;;4951773;29;20174;-67
2021/05/10 03:06:55;;;;;;;3.30;1.20;;;18.70;50.30;;;;;;4951735;29;20106;-67
2021/05/10 03:09:21;;;;;;;2.47;1.02;;;18.60;50.50;;;;;;4950906;28;20483;-68
2021/05/10 03:11:47;;;;;;;4.30;1.38;;;18.60;50.50;;;;;;4952205;29;20035;-68
2021/05/10 03:14:12;;;;;;;2.63;1.00;;;18.50;51.00;;;;;;4949011;28;20031;-67
2021/05/10 03:16:38;;;;;;;3.28;1.15;;;18.30;51.70;;;;;;4949787;29;20498;-68
2021/05/10 03:19:09;;;;;;;5.10;1.15;;;18.20;52.50;;;;;;4950857;29;20086;-67
2021/05/10 03:21:39;;;;;;;2.75;1.23;;;18.30;51.90;;;;;;4950634;29;20524;-67
2021/05/10 03:24:06;;;;;;;5.72;1.15;;;18.40;51.60;;;;;;4943274;28;20037;-68
2021/05/10 03:26:33;;;;;;;2.28;1.02;;;18.30;51.80;;;;;;4949409;28;20023;-67
2021/05/10 03:29:00;;;;;;;1.77;1.17;;;18.40;51.50;;;;;;4950937;28;20027;-67
2021/05/10 03:31:25;;;;;;;4.65;1.00;;;18.40;51.70;;;;;;4943966;29;20031;-68
2021/05/10 03:33:51;;;;;;;2.30;1.10;;;18.50;51.20;;;;;;4950640;29;20037;-68
2021/05/10 03:36:17;;;;;;;2.97;1.15;;;18.50;51.60;;;;;;4950783;29;20031;-68
2021/05/10 03:38:43;;;;;;;3.33;1.20;;;18.50;51.30;;;;;;4948632;28;20032;-68
2021/05/10 03:41:08;;;;;;;7.03;1.60;;;18.50;51.90;;;;;;4949013;28;20480;-68
2021/05/10 03:43:34;;;;;;;2.25;1.08;;;18.70;50.90;;;;;;4951644;29;20062;-68
2021/05/10 03:46:00;;;;;;;7.07;1.02;;;18.70;51.10;;;;;;4950653;29;20122;-68
2021/05/10 03:48:25;;;;;;;1.92;0.90;;;18.70;51.20;;;;;;4949577;28;20023;-68
2021/05/10 03:50:51;;;;;;;1.45;0.90;;;18.60;51.20;;;;;;4949694;29;20102;-68
2021/05/10 03:53:16;;;;;;;2.58;1.17;;;18.70;51.70;;;;;;4951165;29;20043;-68
2021/05/10 03:55:42;;;;;;;3.42;1.10;;;18.60;52.00;;;;;;4949921;29;20059;-67
2021/05/10 03:58:07;;;;;;;2.08;1.08;;;18.60;52.00;;;;;;4951685;29;20094;-67
2021/05/10 04:00:33;;;;;;;3.00;1.10;;;18.60;51.80;;;;;;4948441;29;20562;-67
2021/05/10 04:03:00;;;;;;;4.85;1.35;;;18.60;52.40;;;;;;4949322;29;20035;-67
2021/05/10 04:15:51;;;;;;;1.52;1.17;;;19.10;50.80;;;;;;4948634;28;20090;-68
2021/05/10 04:18:17;;;;;;;3.72;1.10;;;19.10;50.90;;;;;;4950488;29;20035;-68
2021/05/10 04:20:43;;;;;;;5.53;1.50;;;19.10;51.50;;;;;;4949114;29;20062;-67
2021/05/10 04:23:10;;;;;;;3.08;0.85;;;19.30;50.70;;;;;;4950788;29;20070;-67
2021/05/10 04:25:36;;;;;;;1.70;1.10;;;19.30;51.40;;;;;;4944714;28;20028;-67
2021/05/10 04:28:01;;;;;;;1.88;1.00;;;19.20;51.80;;;;;;4950170;29;20042;-67
2021/05/10 04:30:28;;;;;;;3.22;1.02;;;19.30;51.10;;;;;;4950772;29;20035;-67
2021/05/10 04:32:58;;;;;;;4.60;1.42;;;19.20;52.00;;;;;;4949919;29;20070;-67
2021/05/10 04:35:24;;;;;;;3.13;0.90;;;19.10;52.40;;;;;;4949512;28;20031;-67
2021/05/10 04:37:50;;;;;;;2.33;1.02;;;19.00;53.70;;;;;;4934361;29;20401;-67
2021/05/10 04:40:16;;;;;;;6.80;1.65;;;18.80;53.50;;;;;;4945714;28;20121;-67
2021/05/10 04:42:42;;;;;;;2.78;1.10;;;18.80;54.20;;;;;;4950557;29;20046;-67
2021/05/10 04:45:08;;;;;;;4.47;1.15;;;18.70;54.30;;;;;;4945810;28;20027;-68
2021/05/10 04:47:36;;;;;;;5.50;1.20;;;18.60;55.70;;;;;;4949669;29;20030;-67
2021/05/10 04:50:09;;;;;;;3.28;1.15;;;18.50;56.20;;;;;;4950594;29;20035;-67
2021/05/10 04:52:35;;;;;;;4.88;1.50;;;18.50;54.90;;;;;;4950281;29;20059;-67
2021/05/10 04:55:01;;;;;;;2.08;1.27;;;18.50;54.70;;;;;;4949171;28;20081;-67
2021/05/10 04:57:26;;;;;;;8.00;1.83;;;18.50;54.60;;;;;;4950509;29;20039;-66
2021/05/10 04:59:52;;;;;;;4.00;1.05;;;18.50;55.10;;;;;;4948000;28;20031;-67
2021/05/10 05:02:18;;;;;;;3.17;1.30;;;18.50;54.60;;;;;;4949159;29;20559;-67
2021/05/10 05:04:43;;;;;;;3.20;1.20;;;18.50;54.80;;;;;;4949043;28;20044;-67
2021/05/10 05:07:09;;;;;;;3.35;1.42;;;18.40;55.20;;;;;;4949221;29;20488;-67
2021/05/10 05:09:34;;;;;;;3.10;1.40;;;18.40;56.10;;;;;;4948980;29;20035;-67
2021/05/10 05:12:00;;;;;;;2.00;1.25;;;18.30;55.80;;;;;;4949310;28;20122;-67
2021/05/10 05:14:26;;;;;;;2.28;1.20;;;18.30;55.70;;;;;;4946035;28;20441;-67
2021/05/10 05:16:51;;;;;;;5.60;1.40;;;18.30;56.10;;;;;;4949555;29;20038;-67
2021/05/10 05:19:17;;;;;;;7.57;1.40;;;18.20;55.60;;;;;;4948738;29;20504;-67
2021/05/10 05:21:42;;;;;;;2.53;1.40;;;18.20;56.70;;;;;;4948486;29;20131;-67
2021/05/10 05:24:08;;;;;;;5.80;1.40;;;18.10;56.60;;;;;;4946931;28;20034;-67
2021/05/10 05:26:33;;;;;;;2.58;1.20;;;18.20;56.10;;;;;;4947388;29;20031;-67
2021/05/10 05:28:59;;;;;;;1.33;0.90;;;18.10;56.70;;;;;;4947045;29;20448;-67
2021/05/10 05:31:25;;;;;;;2.85;1.23;;;18.10;57.30;;;;;;4948980;29;20028;-67
2021/05/10 05:33:50;;;;;;;2.30;1.40;;;18.10;57.40;;;;;;4948550;29;20086;-67
2021/05/10 05:36:16;;;;;;;2.80;1.30;;;18.10;57.90;;;;;;4944233;29;20113;-66
2021/05/10 05:38:42;;;;;;;3.97;1.40;;;18.10;57.90;;;;;;4949465;29;20043;-67
2021/05/10 05:41:12;;;;;;;2.90;1.40;;;18.10;58.20;;;;;;4943512;28;20062;-67
2021/05/10 05:43:38;;;;;;;2.90;1.50;;;18.20;57.00;;;;;;4929796;29;20034;-67
2021/05/10 05:46:11;;;;;;;5.47;1.50;;;18.20;57.40;;;;;;4947141;28;20058;-67
2021/05/10 05:48:36;;;;;;;3.03;1.73;;;18.30;57.00;;;;;;4947855;29;20562;-67
2021/05/10 05:51:02;;;;;;;4.90;1.42;;;18.30;57.10;;;;;;4945016;29;20051;-66
2021/05/10 05:53:28;;;;;;;3.28;1.20;;;18.30;57.20;;;;;;4945741;29;20035;-67
2021/05/10 05:55:53;;;;;;;3.67;1.27;;;18.30;56.90;;;;;;4945261;28;20118;-67
2021/05/10 05:58:19;;;;;;;7.97;1.88;;;18.40;57.20;;;;;;4948808;28;20287;-67
2021/05/10 06:00:44;;;;;;;2.53;1.40;;;18.40;57.60;;;;;;4947680;29;20499;-67
2021/05/10 06:03:10;;;;;;;3.65;1.52;;;18.30;58.70;;;;;;4939013;28;20058;-67
2021/05/10 06:05:35;;;;;;;4.70;1.50;;;18.30;57.50;;;;;;4946581;29;20484;-67
2021/05/10 06:08:01;;;;;;;3.90;1.30;;;18.40;57.30;;;;;;4947864;29;20110;-67
2021/05/10 06:10:28;;;;;;;5.78;1.65;;;18.40;57.60;;;;;;4946799;28;20038;-67
2021/05/10 06:12:54;;;;;;;6.07;1.55;;;18.40;57.90;;;;;;4946760;29;20268;-67
2021/05/10 06:15:22;;;;;;;4.47;1.55;;;18.40;57.80;;;;;;4946487;28;20631;-67
2021/05/10 06:17:48;;;;;;;3.88;1.38;;;18.50;57.90;;;;;;4948349;29;20507;-67
2021/05/10 06:20:15;;;;;;;3.10;1.50;;;18.50;57.90;;;;;;4947911;29;20042;-65
2021/05/10 06:22:41;;;;;;;3.50;1.40;;;18.50;59.00;;;;;;4946994;28;20086;-66
2021/05/10 06:25:12;;;;;;;3.00;1.50;;;18.50;58.90;;;;;;4944645;28;20031;-67
2021/05/10 06:27:38;;;;;;;3.83;1.48;;;18.60;58.40;;;;;;4946409;28;20428;-67
2021/05/10 06:30:11;;;;;;;2.00;1.58;;;18.70;58.00;;;;;;4945177;29;20086;-67
2021/05/10 06:32:40;;;;;;;4.88;1.38;;;18.80;57.80;;;;;;4945591;29;20089;-67
2021/05/10 06:35:07;;;;;;;4.00;1.42;;;19.00;57.60;;;;;;4944795;28;20039;-67
2021/05/10 06:37:34;;;;;;;2.08;1.20;;;19.00;57.20;;;;;;4948065;29;20149;-67
2021/05/10 06:40:00;;;;;;;2.70;1.05;;;19.20;58.30;;;;;;4948045;29;20082;-67
2021/05/10 06:42:26;;;;;;;5.22;1.45;;;19.30;56.90;;;;;;4944466;28;20038;-67
2021/05/10 06:44:52;;;;;;;2.05;1.40;;;19.50;56.40;;;;;;4943246;28;20032;-68
2021/05/10 06:47:18;;;;;;;2.25;1.20;;;19.50;56.40;;;;;;4945600;29;20031;-67
2021/05/10 06:49:44;;;;;;;2.92;1.23;;;19.60;55.90;;;;;;4947479;29;20110;-67
2021/05/10 06:52:10;;;;;;;1.77;1.15;;;19.80;56.40;;;;;;4946031;28;20082;-67
2021/05/10 06:54:35;;;;;;;3.42;1.20;;;19.90;57.00;;;;;;4945311;28;20023;-67
2021/05/10 06:57:01;;;;;;;6.30;1.40;;;20.30;54.40;;;;;;4946065;29;20039;-67
2021/05/10 06:59:27;;;;;;;5.38;1.40;;;20.50;54.50;;;;;;4939373;29;20504;-67
2021/05/10 07:01:52;;;;;;;1.70;1.30;;;20.90;53.60;;;;;;4945340;29;20389;-67
2021/05/10 07:04:18;;;;;;;3.13;1.52;;;21.30;53.70;;;;;;4945525;28;20046;-67
2021/05/10 07:06:44;;;;;;;6.95;1.50;;;21.30;52.40;;;;;;4944119;29;20463;-67
2021/05/10 07:09:10;;;;;;;3.92;1.40;;;21.40;51.00;;;;;;4945533;28;20503;-67
2021/05/10 07:11:36;;;;;;;3.05;1.05;;;21.30;51.20;;;;;;4944258;28;20440;-68
2021/05/10 07:14:03;;;;;;;4.43;1.17;;;21.30;51.60;;;;;;4946912;28;20089;-68
2021/05/10 07:16:29;;;;;;;2.63;1.52;;;21.30;52.60;;;;;;4945513;29;20578;-68
2021/05/10 07:18:54;;;;;;;2.22;1.20;;;21.70;52.60;;;;;;4946923;29;20066;-67
2021/05/10 07:21:21;;;;;;;2.13;1.10;;;21.80;51.70;;;;;;4945668;29;20074;-68
2021/05/10 07:23:47;;;;;;;3.08;1.38;;;21.90;50.20;;;;;;4950073;28;20050;-68
2021/05/10 07:26:12;;;;;;;1.98;1.27;;;22.20;50.60;;;;;;4943716;29;20023;-67
2021/05/10 07:28:38;;;;;;;2.38;1.13;;;22.60;49.90;;;;;;4945187;29;20048;-68
2021/05/10 07:31:04;;;;;;;3.33;1.30;;;23.20;48.50;;;;;;4949775;28;20420;-68
2021/05/10 07:33:30;;;;;;;5.63;1.50;;;23.50;47.30;;;;;;4944769;28;20027;-68
2021/05/10 07:35:55;;;;;;;9.40;1.50;;;23.50;47.10;;;;;;4946194;28;20110;-68
2021/05/10 07:38:21;;;;;;;3.58;1.15;;;23.40;47.40;;;;;;4940473;28;20027;-68
2021/05/10 07:40:47;;;;;;;4.72;1.40;;;23.40;45.20;;;;;;4923963;29;20063;-68
2021/05/10 07:43:12;;;;;;;3.63;1.10;;;24.00;46.10;;;;;;4947261;28;20031;-68
2021/05/10 07:45:38;;;;;;;6.97;1.40;;;24.60;46.40;;;;;;4944261;28;20035;-69
2021/05/10 07:48:04;;;;;;;4.47;1.20;;;24.60;45.10;;;;;;4946091;29;20105;-68
2021/05/10 07:50:30;;;;;;;4.22;1.23;;;24.40;46.10;;;;;;4945472;29;20086;-68
2021/05/10 07:52:56;;;;;;;2.75;1.25;;;24.50;46.00;;;;;;4943400;29;20492;-68
2021/05/10 07:55:22;;;;;;;4.68;1.33;;;24.70;44.10;;;;;;4948069;29;20278;-69
2021/05/10 07:57:48;;;;;;;5.07;1.00;;;24.50;44.40;;;;;;4946042;29;20027;-68
2021/05/10 08:00:20;;;;;;;3.67;1.35;;;24.20;44.90;;;;;;4949820;29;20028;-68
2021/05/10 08:02:53;;;;;;;4.57;1.38;;;24.40;45.60;;;;;;4946457;29;20032;-68
2021/05/10 08:05:18;;;;;;;3.38;1.10;;;24.30;44.40;;;;;;4948256;28;20288;-68
2021/05/10 08:07:44;;;;;;;2.50;1.02;;;24.50;46.30;;;;;;4949912;29;20070;-68
2021/05/10 08:10:10;;;;;;;4.32;1.15;;;24.60;44.00;;;;;;4945359;29;20487;-68
2021/05/10 08:12:36;;;;;;;4.47;1.00;;;24.40;44.40;;;;;;4946868;28;20042;-68
2021/05/10 08:15:02;;;;;;;4.55;1.13;;;24.40;42.70;;;;;;4946497;28;20369;-68
2021/05/10 08:17:29;;;;;;;2.05;0.95;;;24.40;43.70;;;;;;4947811;28;20263;-69
2021/05/10 08:19:55;;;;;;;3.97;1.10;;;24.10;43.60;;;;;;4950637;29;20058;-68
2021/05/10 08:22:20;;;;;;;3.00;1.05;;;24.30;45.30;;;;;;4949426;29;20102;-69
2021/05/10 08:24:46;;;;;;;2.70;1.10;;;24.10;43.60;;;;;;4942966;28;20378;-68
2021/05/10 08:27:12;;;;;;;1.92;1.00;;;24.10;44.20;;;;;;4947942;29;20034;-69
2021/05/10 08:29:37;;;;;;;2.63;1.20;;;24.20;42.90;;;;;;4951176;29;20063;-69
2021/05/10 08:32:03;;;;;;;1.80;1.00;;;24.50;43.20;;;;;;4949182;28;20019;-69
2021/05/10 08:34:29;;;;;;;2.45;1.20;;;24.90;42.80;;;;;;4930856;29;20119;-68
2021/05/10 08:36:55;;;;;;;3.30;1.15;;;24.80;42.00;;;;;;4941210;29;20319;-68
2021/05/10 08:39:21;;;;;;;2.42;0.88;;;24.90;41.90;;;;;;4944794;29;20082;-68
2021/05/10 08:41:47;;;;;;;2.20;1.30;;;25.10;40.40;;;;;;4941837;28;20070;-68
2021/05/10 08:44:13;;;;;;;2.45;0.90;;;25.00;42.50;;;;;;4947954;28;20034;-68
2021/05/10 08:46:41;;;;;;;2.75;0.80;;;25.00;40.90;;;;;;4947058;29;20085;-68
2021/05/10 08:49:07;;;;;;;3.22;1.00;;;25.00;41.00;;;;;;4947137;28;20058;-68
2021/05/10 08:51:35;;;;;;;1.90;0.90;;;24.70;41.90;;;;;;4949082;29;20067;-68
2021/05/10 08:54:01;;;;;;;3.08;1.30;;;24.40;41.70;;;;;;4949502;28;20039;-68
2021/05/10 08:56:27;;;;;;;3.58;1.27;;;24.20;42.50;;;;;;4946501;29;20043;-68
2021/05/10 08:58:53;;;;;;;4.68;1.30;;;24.20;42.30;;;;;;4949939;29;20035;-68
2021/05/10 09:01:20;;;;;;;2.65;1.05;;;24.40;43.10;;;;;;4948667;29;20520;-68
2021/05/10 09:03:49;;;;;;;2.92;1.17;;;24.60;41.90;;;;;;4947221;28;20027;-68
2021/05/10 09:06:19;;;;;;;4.85;1.05;;;25.00;42.50;;;;;;4948862;28;20518;-68
2021/05/10 09:08:47;;;;;;;1.48;0.88;;;25.20;42.20;;;;;;4949937;28;20046;-68
2021/05/10 09:11:18;;;;;;;3.13;1.02;;;25.50;40.60;;;;;;4943548;29;20388;-68
2021/05/10 09:13:54;;;;;;;3.05;1.00;;;25.80;39.70;;;;;;4942064;28;20040;-68
2021/05/10 09:16:21;;;;;;;3.97;1.10;;;26.20;41.10;;;;;;4939790;28;20039;-69
2021/05/10 09:18:53;;;;;;;3.20;1.02;;;26.00;40.60;;;;;;4945899;29;20443;-68
2021/05/10 09:21:21;;;;;;;3.58;0.88;;;26.50;39.90;;;;;;4941573;28;20031;-69
2021/05/10 09:23:47;;;;;;;5.47;1.15;;;26.50;41.10;;;;;;4943184;29;20036;-69
2021/05/10 09:26:24;;;;;;;3.28;1.00;;;26.20;40.80;;;;;;4937601;28;20035;-69
2021/05/10 09:28:50;;;;;;;3.45;0.90;;;26.50;40.20;;;;;;4947235;29;21374;-68
2021/05/10 09:31:16;;;;;;;3.88;1.20;;;26.20;39.20;;;;;;4947124;29;20282;-68
2021/05/10 09:33:46;;;;;;;1.85;0.98;;;26.20;39.40;;;;;;4930472;29;20117;-68
2021/05/10 09:36:34;;;;;;;1.75;1.02;;;26.00;40.20;;;;;;4948153;28;20027;-69
2021/05/10 09:39:05;;;;;;;1.95;1.00;;;26.40;41.00;;;;;;4940831;28;20086;-68
2021/05/10 09:41:30;;;;;;;3.15;1.10;;;27.00;38.00;;;;;;4945397;29;20043;-69
2021/05/10 09:43:58;;;;;;;3.33;0.88;;;27.10;40.60;;;;;;4944808;29;20031;-69
2021/05/10 09:46:40;;;;;;;2.88;1.00;;;27.70;39.30;;;;;;4946757;28;20442;-69
2021/05/10 09:49:07;;;;;;;3.55;0.95;;;27.80;40.00;;;;;;4942128;29;20034;-69
2021/05/10 09:51:33;;;;;;;2.33;0.90;;;27.50;38.50;;;;;;4946338;29;20054;-68
2021/05/10 09:54:00;;;;;;;5.40;1.13;;;26.80;39.40;;;;;;4944531;29;20035;-69
2021/05/10 09:56:32;;;;;;;1.92;1.20;;;26.80;39.30;;;;;;4939512;29;20028;-69
2021/05/10 09:59:05;;;;;;;4.63;1.23;;;26.40;39.60;;;;;;4946337;29;20031;-68
2021/05/10 10:01:57;;;;;;;3.15;1.15;;;26.00;41.30;;;;;;4942506;29;20031;-68
2021/05/10 10:04:23;;;;;;;4.22;1.20;;;26.00;41.50;;;;;;4944745;28;20043;-69
2021/05/10 10:06:49;;;;;;;3.38;1.10;;;26.00;42.50;;;;;;4946308;29;20086;-69
2021/05/10 10:09:15;;;;;;;3.28;1.10;;;25.60;41.50;;;;;;4948465;29;20395;-68
2021/05/10 10:11:41;;;;;;;4.20;1.20;;;25.60;41.40;;;;;;4945854;29;20103;-68
2021/05/10 10:14:07;;;;;;;5.35;1.33;;;26.00;43.40;;;;;;4943614;28;21667;-69
2021/05/10 10:16:35;;;;;;;8.05;1.23;;;26.50;42.10;;;;;;4947602;29;20040;-69
2021/05/10 10:19:04;;;;;;;1.98;1.05;;;27.20;40.50;;;;;;4947808;29;20089;-69
2021/05/10 10:21:31;;;;;;;5.38;1.23;;;26.70;39.90;;;;;;4949108;29;20031;-68
2021/05/10 10:24:02;;;;;;;2.83;1.10;;;26.60;39.50;;;;;;4947743;29;20039;-69
2021/05/10 10:26:28;;;;;;;5.03;1.25;;;26.40;40.40;;;;;;4947042;29;20516;-68
2021/05/10 10:28:54;;;;;;;2.53;1.00;;;26.50;39.50;;;;;;4949061;29;20035;-68
2021/05/10 10:31:23;;;;;;;3.97;1.30;;;26.50;40.10;;;;;;4948297;29;20046;-69
2021/05/10 10:33:59;;;;;;;3.30;1.08;;;26.80;40.00;;;;;;4947511;28;20101;-69
2021/05/10 10:36:32;;;;;;;4.60;1.27;;;26.60;39.30;;;;;;4947522;28;20027;-69
2021/05/10 10:39:20;;;;;;;4.35;0.93;;;26.60;38.70;;;;;;4944087;28;20031;-68
2021/05/10 10:41:58;;;;;;;3.97;1.15;;;26.60;37.90;;;;;;4946360;29;20042;-69
2021/05/10 10:44:27;;;;;;;4.78;1.20;;;26.40;38.90;;;;;;4943169;28;20031;-68
2021/05/10 10:46:52;;;;;;;2.22;1.10;;;26.80;37.60;;;;;;4947527;29;20027;-69
2021/05/10 10:49:35;;;;;;;2.40;0.90;;;26.80;37.60;;;;;;4947224;29;20079;-68
2021/05/10 10:52:02;;;;;;;4.80;1.20;;;26.90;38.50;;;;;;4945050;29;20035;-68
2021/05/10 10:54:29;;;;;;;2.05;0.90;;;26.80;37.60;;;;;;4944097;28;20415;-68
2021/05/10 10:57:00;;;;;;;2.80;1.20;;;26.80;38.20;;;;;;4944692;28;20114;-68
2021/05/10 10:59:29;;;;;;;2.28;0.85;;;27.30;37.70;;;;;;4945081;29;20023;-69
2021/05/10 11:01:55;;;;;;;1.50;0.75;;;27.90;37.60;;;;;;4943300;29;20122;-69
2021/05/10 11:04:30;;;;;;;3.42;1.10;;;27.80;36.00;;;;;;4950176;28;20512;-69
2021/05/10 11:06:56;;;;;;;5.80;1.27;;;28.30;37.00;;;;;;4950042;29;20591;-69
2021/05/10 11:09:48;;;;;;;2.33;1.08;;;28.40;37.50;;;;;;4944737;28;20110;-69
2021/05/10 11:12:46;;;;;;;2.95;1.02;;;28.50;36.60;;;;;;4946609;29;20139;-69
2021/05/10 11:15:12;;;;;;;8.32;1.25;;;28.30;36.10;;;;;;4944865;28;20028;-68
2021/05/10 11:17:54;;;;;;;2.60;1.05;;;27.50;35.80;;;;;;4932563;29;20396;-69
2021/05/10 11:20:40;;;;;;;2.47;1.15;;;26.70;37.40;;;;;;4948675;29;20057;-69
2021/05/10 11:23:29;;;;;;;1.60;1.00;;;26.90;36.70;;;;;;4947940;29;20035;-68
2021/05/10 11:26:03;;;;;;;3.55;1.33;;;26.90;37.60;;;;;;4942192;29;20122;-68
2021/05/10 11:28:29;;;;;;;2.20;1.10;;;26.40;38.20;;;;;;4949127;29;20102;-68
2021/05/10 11:30:57;;;;;;;3.70;1.20;;;26.20;39.20;;;;;;4948366;29;20031;-69
2021/05/10 11:33:51;;;;;;;1.55;1.00;;;26.30;39.70;;;;;;4948704;28;20031;-68
2021/05/10 11:36:24;;;;;;;3.53;1.10;;;26.70;39.50;;;;;;4946249;28;20043;-68
2021/05/10 11:38:58;;;;;;;1.48;0.82;;;26.50;39.80;;;;;;4932962;29;20078;-68
2021/05/10 11:41:41;;;;;;;4.15;1.02;;;26.20;41.30;;;;;;4948129;29;20023;-68
2021/05/10 11:44:11;;;;;;;5.10;1.05;;;25.60;41.60;;;;;;4949186;28;20082;-68
2021/05/10 11:46:39;;;;;;;2.42;1.10;;;25.40;43.50;;;;;;4949097;29;20036;-69
2021/05/10 11:49:10;;;;;;;5.97;1.15;;;25.30;43.00;;;;;;4950578;28;20038;-68
2021/05/10 11:51:37;;;;;;;;;;;25.50;43.50;;;;;;4952189;28;20019;-68
2021/05/10 11:54:05;;;;;;;2.47;1.17;;;25.50;42.10;;;;;;4948225;28;19981;-70
2021/05/10 11:56:38;;;;;;;2.08;0.95;;;25.70;42.40;;;;;;4947523;28;20058;-68
2021/05/10 11:59:22;;;;;;;3.05;1.10;;;26.20;42.50;;;;;;4949613;29;20034;-68
2021/05/10 12:01:48;;;;;;;9.40;1.55;;;26.10;42.90;;;;;;4930796;28;20031;-69
2021/05/10 12:04:20;;;;;;;2.90;1.05;;;26.00;42.80;;;;;;4944836;28;20369;-68
2021/05/10 12:06:46;;;;;;;2.97;1.02;;;25.80;42.00;;;;;;4947155;29;20613;-69
2021/05/10 12:09:34;;;;;;;3.00;1.10;;;26.00;43.40;;;;;;4947095;28;20027;-68
2021/05/10 12:12:01;;;;;;;4.40;1.20;;;25.90;43.50;;;;;;4944623;29;20031;-68
2021/05/10 12:14:26;;;;;;;2.00;0.90;;;25.40;42.70;;;;;;4946921;28;20019;-69
2021/05/10 12:17:05;;;;;;;4.15;1.33;;;25.60;43.60;;;;;;4948766;29;20075;-68
2021/05/10 12:20:28;;;;;;;2.95;1.08;;;25.60;44.30;;;;;;4947994;29;20042;-68
2021/05/10 12:22:55;;;;;;;2.80;1.15;;;25.30;43.00;;;;;;4887147;29;20040;-68
2021/05/10 12:25:31;;;;;;;2.22;1.15;;;24.90;43.60;;;;;;4894609;29;20076;-68
2021/05/10 12:28:10;;;;;;;5.28;1.02;;;24.60;44.10;;;;;;4924174;29;20039;-68
2021/05/10 12:30:38;;;;;;;2.28;0.98;;;24.60;44.80;;;;;;4948061;28;20111;-68
2021/05/10 12:33:07;;;;;;;1.10;0.93;;;24.40;44.00;;;;;;4947999;28;20066;-68
2021/05/10 12:35:36;;;;;;;4.57;1.30;;;24.20;45.20;;;;;;4948163;28;20094;-68
2021/05/10 12:38:02;;;;;;;4.85;1.30;;;24.10;45.90;;;;;;4947183;28;20035;-69
2021/05/10 12:40:35;;;;;;;3.80;1.05;;;24.00;45.90;;;;;;4949804;28;20031;-68
2021/05/10 12:43:12;;;;;;;4.70;0.77;;;23.90;45.50;;;;;;4947097;28;20074;-68
2021/05/10 12:45:43;;;;;;;6.25;1.13;;;24.00;45.50;;;;;;4947302;28;20059;-68
2021/05/10 12:48:11;;;;;;;3.50;1.27;;;24.00;45.90;;;;;;4947349;29;20102;-68
2021/05/10 12:50:49;;;;;;;2.92;0.98;;;24.00;45.70;;;;;;4948720;28;20381;-68
2021/05/10 12:53:27;;;;;;;4.32;1.35;;;24.00;46.30;;;;;;4947806;28;20500;-68
2021/05/10 12:56:03;;;;;;;7.18;1.45;;;24.10;45.90;;;;;;4948448;28;20102;-68
2021/05/10 12:58:32;;;;;;;4.97;1.10;;;24.00;47.60;;;;;;4948372;29;20513;-68
2021/05/10 13:01:21;;;;;;;7.22;1.17;;;23.80;48.40;;;;;;4948880;28;20452;-69
2021/05/10 13:04:02;;;;;;;2.80;1.08;;;23.70;48.90;;;;;;4947289;29;20042;-69